Platzwetter Flugplatz Wels

Flugwetter Linz LOWL

[Quelle: ADDS]
METAR
LOWL 230150Z AUTO 28008KT 9999 FEW010 OVC140 17/16 Q1015 =
TAF
LOWL 222315Z 2300/2324 25006KT 9999 FEW025 BKN140 TX24/2315Z TN16/2302Z PROB30 TEMPO 2300/2307 5000 BR BKN011 BECMG 2307/2309 28012KT PROB40 TEMPO 2312/2317 28015KT SHRA SCT030CB BKN040 BECMG 2318/2320 26005KT =

Flugwetter Salzburg LOWS

[Quelle: ADDS]
METAR
LOWS 230150Z AUTO 10003KT 080V140 9999 FEW003 BKN050 15/14 Q1016 =
TAF
LOWS 222315Z 2300/2324 16005KT 9999 SCT040 BKN080 TX23/2314Z TN16/2301Z TEMPO 2300/2307 -SHRA BKN040 BECMG 2307/2308 29006KT SCT050 SCT070 TEMPO 2312/2320 32010KT SHRA SCT035TCU BKN060 PROB40 TEMPO 2313/2318 31015G25KT 4000 TSRA SCT030CB BKN050 BECMG 2318/2320 16005KT TEMPO 2320/2324 -SHRA SCT020 BKN040 =

Wind - Verlauf

Windrichtung - Verlauf

Temperatur - Verlauf

Relative Luftfeuchtigkeit - Verlauf

Luftdruck - Verlauf


JU 52 Nostalgie-Rundflüge - hier am Flugplatz Wels!

Tickets, Termine und Infos, hier am Flugplatz Wels. Tickethotline +43 7242 26499 0

Pilot für einen Tag - Erfülle Dir den Traum vom Fliegen!

Werde einen Tag lang Pilot bei und mit dem Fliegerclub Weiße Möwe in Wels!

Stadt - Wels

Ausflugsziele & Sehenswürdigkeiten
in Wels und Umgebung

Cookies erleichtern die Bereitstellung unserer Dienste. Mit der Nutzung unserer Dienste erklären Sie sich damit einverstanden, dass wir Cookies verwenden.
Weitere Informationen Ok